Terminal Aerodrome Forecast
Issued by NWS

Home | Current Version | Previous Version | Graphics & Text | Print | Product List | Glossary On
Versions: 1 2 3 4 5 6 7 8 9 10 11 12 13 14 15 16 17 18
265
FTUS43 KICT 211720
TAFRSL
TAF
KRSL 211720Z 2118/2218 14015KT P6SM OVC020
     FM220600 14010KT P6SM OVC007
     FM221500 11007KT P6SM SCT007 OVC015=

USA.gov is the U.S. government's official web portal to all federal, state and local government web resources and services.